Val-David, Canada
Current Conditions -  °F | °C
As of 11:00 AM on Thursday 27 Nov 2014 (Local Time) from CYMX Reporting Station
Broken Clouds Broken Clouds  
Wind Chill: 28°   Ceiling: 25000
Heat Index: 28°   Visibility: 45mi
Dew Point: 14°   Wind: 0mph
Humidity: 55%   Direction: NA
Pressure: 30.05"   Gusts: NA
Location:  46.03°N, 74.2°W
Report Text: CYMX 271600Z 00000KT 45SM FEW025 SCT035 BKN250 M02/M10 A3005 RMK CF1SC3CI2 CF TR SLP179
Loading
Personal Weather Stations






























Interactive Weather Map New forecast layout! Learn more

10-Day Weather Forecast

Advertisements
Track Severe Weather on mobile